Time;durP1;ratioP1;P1;durP2;ratioP2;P2;SDS_P1;SDS_P2;PMS_P1;PMS_P2;Temp;Humidity;BMP_temperature;BMP_pressure;BME280_temperature;BME280_humidity;BME280_pressure;Samples;Min_cycle;Max_cycle;Signal;HPM_P1;HPM_P2
2022/03/26 00:00:30;;;;;;;14.60;9.20;;;9.80;91.60;;;;;;5054374;28;20120;-48
2022/03/26 00:02:56;;;;;;;14.05;9.60;;;9.90;91.40;;;;;;5054541;28;20136;-48
2022/03/26 00:05:22;;;;;;;17.02;10.00;;;10.10;91.40;;;;;;5037315;28;20037;-48
2022/03/26 00:07:49;;;;;;;23.27;9.93;;;9.90;91.80;;;;;;5054365;28;20033;-48
2022/03/26 00:10:15;;;;;;;17.25;9.45;;;9.70;91.80;;;;;;5037504;28;20037;-48
2022/03/26 00:12:42;;;;;;;16.75;9.70;;;9.70;91.50;;;;;;5054161;28;20041;-48
2022/03/26 00:15:09;;;;;;;11.95;8.77;;;9.70;92.30;;;;;;5054256;28;20147;-48
2022/03/26 00:17:35;;;;;;;15.70;9.88;;;9.70;92.30;;;;;;5054480;28;20559;-48
2022/03/26 00:20:01;;;;;;;13.07;8.32;;;9.70;92.10;;;;;;5054044;28;20480;-47
2022/03/26 00:22:27;;;;;;;12.38;8.25;;;9.80;92.00;;;;;;5037461;28;20052;-48
2022/03/26 00:24:53;;;;;;;15.57;10.27;;;9.80;91.80;;;;;;5053796;28;20036;-47
2022/03/26 00:27:18;;;;;;;14.02;8.13;;;9.90;92.00;;;;;;5049393;28;20039;-48
2022/03/26 00:29:45;;;;;;;14.95;9.30;;;9.90;91.80;;;;;;5076099;28;20129;-48
2022/03/26 00:32:11;;;;;;;14.10;9.23;;;9.90;91.90;;;;;;5076268;28;20041;-48
2022/03/26 00:34:38;;;;;;;13.40;10.10;;;9.90;92.00;;;;;;5075779;28;20035;-48
2022/03/26 00:37:04;;;;;;;14.75;8.63;;;9.80;91.90;;;;;;5074595;28;20460;-48
2022/03/26 00:39:30;;;;;;;16.70;9.43;;;9.80;91.70;;;;;;5074317;28;20498;-48
2022/03/26 00:41:57;;;;;;;12.30;8.35;;;9.80;91.80;;;;;;5075799;28;20024;-47
2022/03/26 00:44:23;;;;;;;12.73;9.40;;;9.70;91.60;;;;;;5076009;28;20035;-48
2022/03/26 00:46:50;;;;;;;16.73;8.82;;;9.70;91.60;;;;;;5075780;28;20025;-48
2022/03/26 00:49:17;;;;;;;13.07;8.52;;;9.80;91.30;;;;;;5075675;28;20519;-48
2022/03/26 00:51:43;;;;;;;16.13;8.70;;;9.80;91.00;;;;;;5075600;28;20040;-47
2022/03/26 00:54:10;;;;;;;16.52;10.90;;;9.80;91.30;;;;;;5075878;28;20024;-47
2022/03/26 00:56:37;;;;;;;40.92;19.85;;;9.90;90.90;;;;;;5075781;28;20039;-48
2022/03/26 00:59:04;;;;;;;43.33;20.88;;;9.80;90.70;;;;;;5075764;28;20029;-48
2022/03/26 01:01:31;;;;;;;66.97;30.35;;;9.80;90.80;;;;;;5075886;28;20036;-47
2022/03/26 01:03:58;;;;;;;76.75;36.35;;;9.60;91.00;;;;;;5040449;28;20037;-47
2022/03/26 01:06:24;;;;;;;57.80;32.53;;;9.30;91.30;;;;;;5075446;28;20025;-47
2022/03/26 01:08:49;;;;;;;58.42;33.03;;;9.10;92.80;;;;;;5075829;28;20460;-47
2022/03/26 01:11:17;;;;;;;57.65;31.42;;;9.10;93.40;;;;;;5075006;28;20028;-48
2022/03/26 01:13:44;;;;;;;72.72;37.28;;;9.10;93.20;;;;;;5075213;28;20059;-47
2022/03/26 01:16:10;;;;;;;85.10;39.28;;;9.20;93.50;;;;;;5075174;28;20024;-47
2022/03/26 01:18:36;;;;;;;81.57;38.88;;;9.30;93.10;;;;;;5075155;28;20035;-47
2022/03/26 01:21:03;;;;;;;60.50;30.00;;;9.50;92.60;;;;;;5073953;28;20045;-47
2022/03/26 01:23:29;;;;;;;73.07;35.03;;;9.60;92.50;;;;;;5075177;28;20029;-47
2022/03/26 01:25:55;;;;;;;73.25;35.45;;;9.60;92.30;;;;;;5056726;28;20041;-47
2022/03/26 01:28:21;;;;;;;47.20;27.75;;;9.70;91.70;;;;;;5075275;28;20078;-47
2022/03/26 01:30:47;;;;;;;34.95;20.60;;;9.70;92.30;;;;;;5074778;28;20029;-47
2022/03/26 01:33:13;;;;;;;32.35;18.63;;;9.70;91.80;;;;;;5075463;28;20028;-47
2022/03/26 01:35:39;;;;;;;31.85;19.17;;;9.70;92.50;;;;;;5075055;28;20521;-48
2022/03/26 01:38:06;;;;;;;39.47;21.80;;;9.60;91.80;;;;;;5056262;28;20071;-48
2022/03/26 01:40:33;;;;;;;32.65;21.08;;;9.50;92.30;;;;;;5074902;28;20189;-47
2022/03/26 01:42:59;;;;;;;39.22;23.42;;;9.30;91.90;;;;;;5075330;28;20062;-48
2022/03/26 01:45:27;;;;;;;27.85;17.13;;;9.00;94.10;;;;;;5074810;28;20437;-48
2022/03/26 01:47:53;;;;;;;35.50;19.17;;;9.00;96.00;;;;;;5074240;28;20115;-48
2022/03/26 01:50:18;;;;;;;20.48;13.05;;;8.90;95.80;;;;;;5074566;28;20035;-48
2022/03/26 01:52:44;;;;;;;18.13;11.52;;;8.30;90.10;;;;;;5074410;28;20028;-48
2022/03/26 01:55:10;;;;;;;19.13;13.35;;;7.80;99.90;;;;;;5075023;28;20104;-47
2022/03/26 01:57:36;;;;;;;21.48;11.45;;;7.50;91.70;;;;;;5074743;28;21217;-48
2022/03/26 02:00:03;;;;;;;18.77;12.98;;;7.30;92.20;;;;;;5072727;28;20041;-47
2022/03/26 02:02:29;;;;;;;24.60;14.85;;;6.70;99.90;;;;;;5074205;28;20063;-48
2022/03/26 02:04:55;;;;;;;22.15;14.52;;;6.20;94.80;;;;;;5072597;28;20032;-48
2022/03/26 02:07:22;;;;;;;19.98;13.75;;;6.30;95.10;;;;;;5074202;28;20048;-48
2022/03/26 02:09:48;;;;;;;19.65;12.93;;;6.10;95.50;;;;;;5074126;28;20036;-48
2022/03/26 02:12:23;;;;;;;19.15;13.27;;;6.20;95.40;;;;;;5074125;28;20472;-47
2022/03/26 02:14:50;;;;;;;16.63;12.38;;;6.20;95.50;;;;;;5074660;28;20021;-47
2022/03/26 02:17:19;;;;;;;21.15;13.18;;;6.20;95.50;;;;;;5074058;28;20388;-47
2022/03/26 02:20:05;;;;;;;18.55;12.23;;;6.30;95.50;;;;;;5072846;28;20116;-47
2022/03/26 02:22:31;;;;;;;19.77;12.25;;;6.40;95.30;;;;;;5055589;28;20079;-47
2022/03/26 02:24:58;;;;;;;17.75;12.88;;;6.50;95.00;;;;;;5074013;28;20109;-48
2022/03/26 02:27:25;;;;;;;18.27;12.70;;;6.60;95.00;;;;;;5074147;28;20028;-48
2022/03/26 02:29:52;;;;;;;20.73;13.70;;;6.80;94.50;;;;;;5074410;28;20028;-48
2022/03/26 02:32:19;;;;;;;20.73;12.63;;;7.10;93.80;;;;;;5074075;28;20043;-47
2022/03/26 02:34:47;;;;;;;21.45;13.10;;;7.40;93.20;;;;;;5074226;28;20090;-47
2022/03/26 02:37:12;;;;;;;21.17;12.60;;;7.50;92.90;;;;;;5073590;28;20404;-47
2022/03/26 02:39:38;;;;;;;18.50;11.93;;;7.60;92.60;;;;;;5073789;28;20060;-48
2022/03/26 02:42:04;;;;;;;22.15;12.93;;;7.80;92.30;;;;;;5073813;28;20107;-47
2022/03/26 02:44:30;;;;;;;32.92;13.23;;;7.90;91.90;;;;;;5074208;28;20099;-48
2022/03/26 02:46:56;;;;;;;19.83;12.82;;;8.00;91.50;;;;;;5073763;28;20447;-48
2022/03/26 02:49:21;;;;;;;35.13;18.98;;;8.10;91.40;;;;;;5054967;28;20043;-48
2022/03/26 02:51:47;;;;;;;34.85;21.63;;;8.10;98.10;;;;;;5073585;28;20047;-47
2022/03/26 02:54:19;;;;;;;27.23;17.70;;;8.00;98.50;;;;;;5073549;28;20027;-47
2022/03/26 02:56:48;;;;;;;24.52;15.50;;;8.00;98.00;;;;;;5073480;28;20082;-47
2022/03/26 02:59:15;;;;;;;19.63;13.20;;;7.70;98.50;;;;;;5073655;28;20503;-48
2022/03/26 03:01:41;;;;;;;17.20;11.38;;;7.50;98.60;;;;;;5073258;28;20459;-48
2022/03/26 03:04:08;;;;;;;20.85;12.38;;;7.10;99.90;;;;;;5073511;28;20035;-47
2022/03/26 03:06:34;;;;;;;18.70;12.32;;;6.70;93.40;;;;;;5074159;28;20159;-47
2022/03/26 03:09:02;;;;;;;19.23;11.82;;;6.70;93.70;;;;;;5073915;28;20070;-48
2022/03/26 03:11:28;;;;;;;23.48;13.70;;;6.60;93.90;;;;;;5074003;28;20032;-47
2022/03/26 03:13:55;;;;;;;22.13;13.98;;;6.40;94.50;;;;;;5055140;28;20041;-48
2022/03/26 03:16:21;;;;;;;23.17;14.40;;;6.30;94.90;;;;;;5073393;28;20115;-48
2022/03/26 03:18:47;;;;;;;22.13;14.52;;;6.30;95.10;;;;;;5074340;28;20109;-48
2022/03/26 03:21:12;;;;;;;21.63;13.50;;;6.40;95.00;;;;;;5073564;28;20388;-48
2022/03/26 03:23:38;;;;;;;24.77;14.88;;;6.50;94.80;;;;;;5073255;28;20107;-47
2022/03/26 03:26:04;;;;;;;27.45;16.30;;;6.90;94.20;;;;;;5071469;28;20040;-48
2022/03/26 03:28:30;;;;;;;30.98;16.63;;;7.10;93.60;;;;;;5058469;28;20041;-48
2022/03/26 03:30:56;;;;;;;30.67;17.00;;;7.30;99.90;;;;;;5079145;28;20074;-48
2022/03/26 03:33:21;;;;;;;31.13;15.13;;;7.50;92.70;;;;;;5076636;28;20035;-48
2022/03/26 03:35:47;;;;;;;31.20;15.05;;;7.70;92.50;;;;;;5075305;28;20043;-48
2022/03/26 03:38:13;;;;;;;31.48;14.63;;;7.70;92.10;;;;;;5075396;28;20044;-48
2022/03/26 03:40:39;;;;;;;40.40;15.82;;;7.80;91.90;;;;;;5075190;28;20515;-48
2022/03/26 03:43:05;;;;;;;22.92;14.13;;;7.80;91.80;;;;;;5075678;28;20043;-48
2022/03/26 03:45:31;;;;;;;27.17;14.45;;;7.90;91.80;;;;;;5074745;28;20044;-48
2022/03/26 03:47:57;;;;;;;29.27;14.68;;;7.90;91.60;;;;;;5058133;28;20044;-47
2022/03/26 03:50:23;;;;;;;22.92;14.30;;;7.90;91.50;;;;;;5074821;28;20203;-48
2022/03/26 03:52:49;;;;;;;22.42;13.65;;;7.90;91.50;;;;;;5057995;28;20098;-48
2022/03/26 03:55:14;;;;;;;29.25;16.65;;;7.90;91.40;;;;;;5074902;28;20427;-48
2022/03/26 03:57:44;;;;;;;25.17;15.20;;;7.90;91.40;;;;;;5058202;28;20072;-48
2022/03/26 04:00:15;;;;;;;27.45;15.35;;;7.90;91.50;;;;;;5074691;28;20368;-48
2022/03/26 04:02:42;;;;;;;35.13;18.27;;;8.00;91.50;;;;;;5074827;28;20410;-48
2022/03/26 04:05:13;;;;;;;26.02;15.07;;;8.00;91.50;;;;;;5057561;28;20167;-48
2022/03/26 04:07:39;;;;;;;28.53;15.70;;;8.00;91.50;;;;;;5074817;28;20044;-47
2022/03/26 04:10:07;;;;;;;24.95;15.23;;;8.00;91.70;;;;;;5076688;28;20261;-48
2022/03/26 04:12:34;;;;;;;34.08;14.10;;;8.00;91.30;;;;;;5074382;28;20072;-48
2022/03/26 04:15:00;;;;;;;25.85;12.85;;;8.00;91.20;;;;;;5074496;28;20048;-47
2022/03/26 04:17:26;;;;;;;25.80;13.73;;;;;;;;;;5057512;28;20033;-48
2022/03/26 04:19:53;;;;;;;22.45;13.27;;;8.30;95.80;;;;;;5074405;28;20407;-47
2022/03/26 04:22:19;;;;;;;23.85;11.82;;;8.00;96.30;;;;;;5057720;28;20087;-47
2022/03/26 04:24:45;;;;;;;19.58;12.40;;;8.10;96.40;;;;;;5074414;28;20051;-47
2022/03/26 04:27:10;;;;;;;20.83;11.57;;;8.20;96.30;;;;;;5074132;28;20135;-48
2022/03/26 04:29:36;;;;;;;20.83;11.07;;;8.20;96.10;;;;;;5074057;28;20043;-47
2022/03/26 04:32:03;;;;;;;19.40;11.75;;;8.20;96.10;;;;;;5074011;28;20047;-47
2022/03/26 04:34:29;;;;;;;15.88;11.05;;;8.20;96.00;;;;;;5073997;28;20028;-48
2022/03/26 04:36:55;;;;;;;18.42;11.38;;;8.20;96.10;;;;;;5073977;28;20028;-48
2022/03/26 04:39:21;;;;;;;18.58;11.52;;;8.20;96.10;;;;;;5039623;28;20448;-48
2022/03/26 04:41:47;;;;;;;16.15;10.65;;;8.10;95.90;;;;;;5074003;28;20082;-47
2022/03/26 04:44:13;;;;;;;17.45;10.65;;;8.00;96.30;;;;;;5045022;28;20110;-47
2022/03/26 04:46:39;;;;;;;14.10;10.52;;;8.00;96.00;;;;;;5074145;28;20032;-47
2022/03/26 04:49:05;;;;;;;15.18;9.90;;;8.10;95.80;;;;;;5057082;28;20082;-47
2022/03/26 04:51:31;;;;;;;17.98;10.55;;;8.20;95.80;;;;;;5075776;28;20036;-48
2022/03/26 04:53:56;;;;;;;17.92;10.25;;;8.30;95.70;;;;;;5074253;28;20475;-48
2022/03/26 04:56:22;;;;;;;21.27;11.75;;;8.40;95.80;;;;;;5075849;28;20123;-50
2022/03/26 04:58:48;;;;;;;19.70;11.23;;;8.40;96.00;;;;;;5090936;28;20029;-47
2022/03/26 05:01:15;;;;;;;18.42;10.40;;;8.30;96.10;;;;;;5076028;28;20024;-48
2022/03/26 05:03:44;;;;;;;24.67;11.85;;;8.40;96.10;;;;;;5075779;28;20105;-48
2022/03/26 05:06:10;;;;;;;19.25;10.57;;;8.40;95.80;;;;;;5075960;28;20103;-48
2022/03/26 05:08:36;;;;;;;23.30;11.30;;;8.40;96.00;;;;;;5076309;28;20132;-48
2022/03/26 05:11:01;;;;;;;24.65;11.90;;;8.40;96.30;;;;;;5075873;28;20472;-47
2022/03/26 05:13:27;;;;;;;20.20;11.60;;;;;;;;;;5075525;28;20029;-48
2022/03/26 05:15:54;;;;;;;22.67;10.52;;;;;;;;;;5090401;28;20039;-47
2022/03/26 05:18:20;;;;;;;17.70;11.48;;;;;;;;;;5075608;28;20028;-47
2022/03/26 05:20:46;;;;;;;25.10;11.20;;;;;;;;;;5075330;28;20040;-47
2022/03/26 05:23:12;;;;;;;15.60;10.80;;;;;;;;;;5075703;28;20020;-47
2022/03/26 05:25:38;;;;;;;22.65;10.55;;;;;;;;;;5090296;28;20041;-47
2022/03/26 05:28:05;;;;;;;16.92;9.85;;;;;;;;;;5075639;28;20028;-47
2022/03/26 05:30:31;;;;;;;15.35;9.85;;;;;;;;;;5075172;28;20059;-47
2022/03/26 05:32:59;;;;;;;15.80;9.85;;;;;;;;;;5075035;28;20029;-47
2022/03/26 05:35:25;;;;;;;18.77;10.77;;;;;;;;;;5074402;28;20086;-48
2022/03/26 05:37:51;;;;;;;20.75;12.07;;;;;;;;;;5075059;28;20536;-47
2022/03/26 05:40:19;;;;;;;28.63;11.55;;;;;;;;;;5074652;28;20020;-47
2022/03/26 05:42:46;;;;;;;23.27;11.40;;;;;;;;;;5074967;28;20025;-47
2022/03/26 05:45:12;;;;;;;23.25;11.23;;;;;;;;;;5074802;28;20518;-47
2022/03/26 05:47:38;;;;;;;20.65;10.63;;;9.30;99.90;;;;;;5074643;28;20028;-47
2022/03/26 05:50:12;;;;;;;21.88;11.38;;;9.50;99.90;;;;;;5074509;28;20024;-47
2022/03/26 05:52:39;;;;;;;23.67;11.65;;;9.60;99.90;;;;;;5074233;28;20138;-47
2022/03/26 05:55:05;;;;;;;15.52;11.25;;;9.80;99.90;;;;;;5075193;28;20046;-47
2022/03/26 05:57:33;;;;;;;15.27;10.52;;;10.00;93.20;;;;;;5055815;28;20033;-47
2022/03/26 06:00:00;;;;;;;15.65;11.15;;;;;;;;;;5074343;28;20036;-47
2022/03/26 06:02:26;;;;;;;25.73;11.10;;;;;;;;;;5074221;28;20035;-48
2022/03/26 06:04:52;;;;;;;19.60;10.43;;;;;;;;;;5074456;28;20456;-48
2022/03/26 06:07:18;;;;;;;20.90;12.98;;;10.60;99.90;;;;;;5074864;28;20024;-48
2022/03/26 06:09:44;;;;;;;369.08;180.48;;;;;;;;;;5074544;28;20389;-48
2022/03/26 06:12:10;;;;;;;109.05;55.60;;;;;;;;;;5072340;28;20480;-48
2022/03/26 06:14:37;;;;;;;22.90;13.32;;;;;;;;;;5074143;28;20039;-48
2022/03/26 06:17:03;;;;;;;19.02;11.95;;;11.10;99.90;;;;;;5072471;28;20032;-48
2022/03/26 06:19:29;;;;;;;21.38;11.43;;;11.20;99.90;;;;;;5055525;28;20036;-48
2022/03/26 06:21:55;;;;;;;20.95;12.77;;;11.50;99.90;;;;;;5073550;28;20442;-48
2022/03/26 06:24:21;;;;;;;20.95;11.88;;;11.60;99.90;;;;;;5055410;28;20040;-51
2022/03/26 06:26:48;;;;;;;19.58;12.75;;;11.70;99.90;;;;;;5022220;28;20097;-48
2022/03/26 06:29:14;;;;;;;17.23;12.82;;;11.90;99.90;;;;;;5074499;28;20032;-48
2022/03/26 06:31:40;;;;;;;18.67;12.00;;;12.10;98.70;;;;;;5074191;28;20021;-48
2022/03/26 06:34:06;;;;;;;23.05;12.80;;;12.10;93.80;;;;;;5073906;28;20479;-48
2022/03/26 06:36:34;;;;;;;28.05;15.55;;;12.00;93.00;;;;;;5071995;28;20036;-48
2022/03/26 06:39:00;;;;;;;31.58;13.98;;;12.20;92.30;;;;;;5073748;28;20041;-48
2022/03/26 06:41:26;;;;;;;110.03;60.40;;;12.30;92.00;;;;;;5074144;28;20444;-49
2022/03/26 06:43:52;;;;;;;20.25;13.85;;;12.20;92.10;;;;;;5074110;28;20032;-48
2022/03/26 06:46:18;;;;;;;18.13;13.23;;;12.30;93.10;;;;;;5022355;28;20029;-48
2022/03/26 06:48:43;;;;;;;29.55;14.93;;;12.50;93.20;;;;;;5071287;28;20557;-48
2022/03/26 06:51:09;;;;;;;29.15;14.80;;;12.60;93.30;;;;;;5073636;28;20033;-48
2022/03/26 06:53:36;;;;;;;85.97;44.72;;;12.70;93.80;;;;;;5073428;28;20032;-48
2022/03/26 06:56:05;;;;;;;19.30;15.25;;;12.70;94.20;;;;;;5071757;28;20039;-48
2022/03/26 06:58:30;;;;;;;21.25;15.13;;;12.90;94.30;;;;;;5073363;28;20025;-49
2022/03/26 07:00:58;;;;;;;23.95;14.65;;;12.90;96.70;;;;;;5055088;28;20115;-48
2022/03/26 07:03:25;;;;;;;19.63;13.25;;;13.00;96.40;;;;;;5073354;28;20036;-48
2022/03/26 07:05:51;;;;;;;25.17;15.73;;;;;;;;;;5072985;28;20027;-49
2022/03/26 07:08:17;;;;;;;21.77;13.77;;;;;;;;;;5071815;28;20062;-49
2022/03/26 07:10:45;;;;;;;33.03;19.60;;;;;;;;;;5071876;28;20032;-50
2022/03/26 07:13:15;;;;;;;26.60;15.75;;;;;;;;;;5067920;28;20025;-48
2022/03/26 07:15:41;;;;;;;49.20;26.50;;;13.60;94.70;;;;;;5071053;28;20404;-48
2022/03/26 07:18:08;;;;;;;19.70;12.48;;;13.40;94.40;;;;;;5063995;28;20024;-48
2022/03/26 07:20:33;;;;;;;23.65;13.05;;;13.70;94.90;;;;;;5062266;28;20752;-49
2022/03/26 07:23:00;;;;;;;15.98;12.63;;;14.00;85.70;;;;;;5030575;28;20056;-48
2022/03/26 07:25:26;;;;;;;29.25;17.85;;;14.30;84.80;;;;;;5060747;28;20390;-49
2022/03/26 07:27:53;;;;;;;33.92;17.88;;;;;;;;;;5063582;28;20063;-48
2022/03/26 07:30:19;;;;;;;23.00;15.20;;;;;;;;;;5056723;28;20431;-48
2022/03/26 07:32:45;;;;;;;20.67;13.68;;;;;;;;;;5053843;28;20067;-49
2022/03/26 07:35:12;;;;;;;23.90;13.43;;;;;;;;;;5061016;28;20021;-49
2022/03/26 07:37:38;;;;;;;20.45;13.65;;;;;;;;;;5058123;28;20384;-50
2022/03/26 07:40:05;;;;;;;23.95;16.73;;;;;;;;;;5054667;28;20037;-49
2022/03/26 07:42:31;;;;;;;21.67;13.38;;;;;;;;;;5060849;28;20028;-49
2022/03/26 07:44:57;;;;;;;42.67;26.80;;;;;;;;;;5054741;28;20064;-49
2022/03/26 07:47:23;;;;;;;18.38;12.68;;;;;;;;;;5063900;28;20438;-49
2022/03/26 07:49:50;;;;;;;17.50;12.43;;;;;;;;;;5037309;28;20029;-48
2022/03/26 07:52:16;;;;;;;18.83;13.73;;;;;;;;;;5063988;28;20033;-48
2022/03/26 07:54:42;;;;;;;22.45;12.10;;;;;;;;;;5070233;28;20124;-46
2022/03/26 07:57:08;;;;;;;17.70;11.02;;;;;;;;;;5071231;28;20025;-46
2022/03/26 07:59:34;;;;;;;18.75;11.30;;;;;;;;;;5073087;28;20048;-46
2022/03/26 08:02:01;;;;;;;15.77;10.18;;;;;;;;;;5072619;28;20514;-47
2022/03/26 08:04:27;;;;;;;15.63;9.40;;;;;;;;;;5072901;28;20395;-49
2022/03/26 08:06:53;;;;;;;13.15;7.68;;;;;;;;;;5072918;28;20033;-45
2022/03/26 08:09:19;;;;;;;18.63;11.02;;;;;;;;;;5063978;28;20090;-48
2022/03/26 08:11:45;;;;;;;22.65;9.20;;;;;;;;;;5078048;28;20140;-47
2022/03/26 08:14:12;;;;;;;16.30;8.18;;;;;;;;;;5063098;28;20098;-46
2022/03/26 08:16:38;;;;;;;11.57;8.02;;;;;;;;;;5056091;28;20033;-47
2022/03/26 08:19:05;;;;;;;26.42;13.48;;;;;;;;;;5056826;28;20170;-46
2022/03/26 08:21:32;;;;;;;14.25;8.85;;;;;;;;;;5074729;28;20488;-47
2022/03/26 08:23:59;;;;;;;18.25;10.00;;;;;;;;;;5072608;28;20346;-47
2022/03/26 08:26:29;;;;;;;14.40;8.90;;;;;;;;;;5064496;28;20464;-45
2022/03/26 08:28:56;;;;;;;15.38;9.55;;;;;;;;;;5071763;28;20024;-50
2022/03/26 08:31:23;;;;;;;14.57;8.65;;;;;;;;;;5066626;28;20043;-46
2022/03/26 08:33:49;;;;;;;10.70;7.63;;;;;;;;;;5065506;28;20036;-49
2022/03/26 08:36:16;;;;;;;15.18;8.70;;;;;;;;;;5056539;28;20098;-52
2022/03/26 08:38:46;;;;;;;12.18;7.55;;;;;;;;;;5055803;28;20460;-48
2022/03/26 08:41:13;;;;;;;12.23;7.68;;;19.90;68.70;;;;;;5055681;28;20477;-46
2022/03/26 08:43:39;;;;;;;13.02;7.03;;;20.30;81.90;;;;;;5053841;28;20052;-47
2022/03/26 08:46:05;;;;;;;13.43;7.25;;;20.30;69.00;;;;;;5054489;28;20033;-48
2022/03/26 08:48:31;;;;;;;14.65;7.28;;;20.50;68.60;;;;;;5060100;28;20031;-48
2022/03/26 08:50:57;;;;;;;9.98;6.82;;;20.50;68.70;;;;;;5067389;28;20697;-48
2022/03/26 08:53:23;;;;;;;13.45;6.75;;;20.50;66.50;;;;;;5072950;28;20033;-48
2022/03/26 08:55:49;;;;;;;10.13;7.35;;;20.90;68.40;;;;;;5069389;28;20054;-48
2022/03/26 08:58:17;;;;;;;13.05;7.57;;;21.20;68.20;;;;;;5075134;28;20071;-48
2022/03/26 09:00:43;;;;;;;23.95;8.43;;;;;;;;;;5074276;28;20028;-48
2022/03/26 09:03:09;;;;;;;18.20;8.32;;;21.70;94.70;;;;;;5075725;28;20053;-47
2022/03/26 09:05:35;;;;;;;13.27;6.88;;;;;;;;;;5075720;28;20112;-48
2022/03/26 09:08:01;;;;;;;13.93;8.07;;;22.50;95.70;;;;;;5075326;28;20032;-47
2022/03/26 09:10:27;;;;;;;24.20;13.77;;;22.60;66.20;;;;;;5075541;28;20040;-48
2022/03/26 09:12:52;;;;;;;25.83;14.10;;;22.90;65.00;;;;;;5075350;28;20044;-47
2022/03/26 09:15:18;;;;;;;18.00;10.82;;;22.20;65.20;;;;;;5074174;28;20020;-49
2022/03/26 09:17:44;;;;;;;20.58;10.77;;;22.50;65.30;;;;;;5062510;28;20035;-47
2022/03/26 09:20:10;;;;;;;46.25;22.63;;;22.20;65.00;;;;;;5064686;28;20033;-48
2022/03/26 09:22:36;;;;;;;50.17;25.20;;;22.30;65.10;;;;;;5075401;28;20048;-48
2022/03/26 09:25:04;;;;;;;28.42;14.98;;;22.70;64.80;;;;;;5073836;28;20032;-48
2022/03/26 09:27:30;;;;;;;134.38;57.67;;;21.90;64.50;;;;;;5072579;28;20044;-48
2022/03/26 09:29:56;;;;;;;187.00;74.55;;;21.60;64.20;;;;;;5059508;28;20537;-47
2022/03/26 09:32:22;;;;;;;58.72;23.98;;;21.70;64.60;;;;;;5054463;28;20056;-48
2022/03/26 09:34:49;;;;;;;85.75;32.17;;;21.70;65.00;;;;;;5055415;28;20037;-48
2022/03/26 09:37:15;;;;;;;63.22;28.83;;;21.90;64.50;;;;;;5054930;28;20033;-48
2022/03/26 09:39:41;;;;;;;54.72;28.40;;;22.20;62.90;;;;;;5062319;28;20066;-48
2022/03/26 09:42:11;;;;;;;36.88;20.38;;;;;;;;;;5072116;28;20033;-48
2022/03/26 09:44:37;;;;;;;55.33;32.60;;;23.70;62.30;;;;;;5063886;28;20029;-48
2022/03/26 09:47:10;;;;;;;21.88;11.68;;;23.80;62.80;;;;;;5063798;28;20032;-48
2022/03/26 09:49:38;;;;;;;23.05;14.48;;;23.30;62.70;;;;;;5063328;28;20111;-48
2022/03/26 09:52:06;;;;;;;12.63;8.32;;;;;;;;;;5068992;28;20484;-47
2022/03/26 09:54:33;;;;;;;9.80;6.95;;;;;;;;;;5052493;28;20044;-48
2022/03/26 09:56:59;;;;;;;18.15;11.88;;;24.30;61.00;;;;;;5059304;28;20043;-47
2022/03/26 09:59:26;;;;;;;13.77;8.88;;;24.60;62.90;;;;;;5052424;28;20440;-48
2022/03/26 10:01:52;;;;;;;39.72;12.65;;;24.80;62.00;;;;;;5059659;28;20039;-50
2022/03/26 10:04:20;;;;;;;15.27;8.05;;;24.70;77.40;;;;;;5064796;28;20041;-49
2022/03/26 10:06:56;;;;;;;24.75;16.23;;;26.10;62.00;;;;;;5052429;28;20037;-48
2022/03/26 10:09:47;;;;;;;15.27;9.05;;;24.60;59.80;;;;;;5052149;28;20488;-48
2022/03/26 10:12:17;;;;;;;11.13;7.70;;;;;;;;;;5052054;28;20152;-48
2022/03/26 10:14:46;;;;;;;11.30;7.22;;;;;;;;;;5054639;28;20120;-47
2022/03/26 10:17:29;;;;;;;16.38;13.18;;;25.60;59.90;;;;;;5060846;28;20029;-47
2022/03/26 10:19:58;;;;;;;11.40;7.65;;;25.50;61.00;;;;;;5062208;28;20224;-48
2022/03/26 10:22:36;;;;;;;18.17;7.60;;;25.60;60.50;;;;;;5064407;28;20072;-48
2022/03/26 10:25:05;;;;;;;14.13;6.90;;;26.20;60.10;;;;;;5068342;28;20051;-47
2022/03/26 10:27:40;;;;;;;15.60;8.88;;;26.60;59.20;;;;;;5053992;28;20025;-47
2022/03/26 10:30:08;;;;;;;17.10;10.38;;;26.30;58.70;;;;;;5053835;28;20036;-47
2022/03/26 10:32:39;;;;;;;11.50;8.52;;;26.20;61.20;;;;;;5051820;28;20085;-49
2022/03/26 10:35:09;;;;;;;17.08;6.85;;;26.50;59.90;;;;;;5054235;28;20121;-48
2022/03/26 10:37:42;;;;;;;10.45;5.10;;;26.20;59.20;;;;;;5034977;28;20041;-48
2022/03/26 10:40:23;;;;;;;8.52;5.03;;;26.60;59.30;;;;;;5053584;28;20032;-47
2022/03/26 10:42:52;;;;;;;10.52;5.57;;;;;;;;;;5053928;28;20036;-48
2022/03/26 10:45:19;;;;;;;7.70;4.47;;;;;;;;;;5053804;28;20025;-47
2022/03/26 10:47:45;;;;;;;7.38;4.93;;;;;;;;;;5053883;28;20120;-48
2022/03/26 10:50:14;;;;;;;11.10;6.07;;;;;;;;;;5053516;28;20029;-49
2022/03/26 10:52:40;;;;;;;10.20;6.75;;;27.70;57.90;;;;;;5053871;28;20040;-49
2022/03/26 10:55:14;;;;;;;12.57;5.95;;;27.60;58.30;;;;;;5053558;28;20037;-48
2022/03/26 10:57:45;;;;;;;11.18;5.53;;;26.60;58.00;;;;;;5052543;28;20388;-49
2022/03/26 11:00:15;;;;;;;14.02;6.22;;;26.30;57.70;;;;;;5067870;28;20058;-49
2022/03/26 11:02:42;;;;;;;13.07;6.88;;;26.60;58.30;;;;;;5053280;28;20025;-48
2022/03/26 11:05:09;;;;;;;16.48;8.45;;;26.00;58.30;;;;;;5068556;28;20041;-48
2022/03/26 11:07:37;;;;;;;8.52;5.82;;;25.80;59.20;;;;;;5053377;28;20488;-48
2022/03/26 11:10:08;;;;;;;15.70;12.00;;;26.00;59.50;;;;;;5053464;28;20112;-48
2022/03/26 11:12:36;;;;;;;13.70;8.93;;;25.60;58.80;;;;;;5064239;28;20053;-49
2022/03/26 11:15:06;;;;;;;10.45;6.78;;;26.20;60.10;;;;;;5054635;28;20039;-49
2022/03/26 11:17:44;;;;;;;9.45;5.60;;;25.50;58.90;;;;;;5052649;28;20462;-48
2022/03/26 11:20:44;;;;;;;10.23;5.57;;;25.70;59.20;;;;;;5069774;28;20090;-48
2022/03/26 11:23:39;;;;;;;9.98;6.30;;;26.60;58.20;;;;;;5069622;28;20044;-47
2022/03/26 11:26:32;;;;;;;10.73;5.85;;;27.10;57.60;;;;;;5070424;28;20043;-48
2022/03/26 11:29:32;;;;;;;7.20;4.55;;;27.40;58.50;;;;;;5056226;28;20492;-48
2022/03/26 11:32:20;;;;;;;11.57;6.72;;;27.50;57.30;;;;;;5061547;28;20048;-49
2022/03/26 11:34:57;;;;;;;14.57;7.68;;;27.30;57.00;;;;;;5055424;28;20136;-50
2022/03/26 11:37:23;;;;;;;10.63;6.45;;;;;;;;;;5062644;28;20036;-52
2022/03/26 11:39:56;;;;;;;9.95;5.35;;;;;;;;;;5070742;28;20035;-48
2022/03/26 11:42:32;;;;;;;9.90;6.22;;;;;;;;;;5070826;28;20145;-48
2022/03/26 11:50:46;;;;;;;11.18;5.75;;;27.20;57.20;;;;;;5075362;28;20383;-49
2022/03/26 11:53:37;;;;;;;8.90;5.45;;;28.00;58.00;;;;;;5075281;28;20048;-50
2022/03/26 11:56:04;;;;;;;8.05;5.20;;;27.40;56.90;;;;;;5074368;28;20043;-48
2022/03/26 11:58:30;;;;;;;12.65;5.97;;;27.20;56.60;;;;;;5074326;28;20379;-48
2022/03/26 12:01:00;;;;;;;11.30;5.78;;;27.90;57.30;;;;;;5077172;28;20107;-48
2022/03/26 12:03:29;;;;;;;10.75;5.82;;;28.10;57.50;;;;;;5076715;28;20041;-48
2022/03/26 12:08:54;;;;;;;8.98;5.63;;;28.00;57.10;;;;;;5076965;28;20067;-49
2022/03/26 12:11:24;;;;;;;9.50;5.30;;;28.10;56.80;;;;;;5077132;28;20067;-48
2022/03/26 12:14:03;;;;;;;8.75;4.88;;;28.20;56.80;;;;;;5091856;28;20040;-48
2022/03/26 12:16:51;;;;;;;6.30;4.72;;;28.00;56.30;;;;;;5074506;28;20036;-48
2022/03/26 12:19:35;;;;;;;8.07;4.75;;;27.60;57.00;;;;;;5076315;28;20040;-49
2022/03/26 12:22:26;;;;;;;10.43;5.68;;;27.90;56.50;;;;;;5076400;28;20040;-49
2022/03/26 12:24:54;;;;;;;9.27;5.00;;;28.10;56.90;;;;;;5076448;28;20037;-49
2022/03/26 12:27:20;;;;;;;14.50;5.53;;;27.80;56.60;;;;;;5091091;28;20044;-49
2022/03/26 12:29:46;;;;;;;7.13;4.53;;;27.80;57.10;;;;;;5076404;28;20085;-49
2022/03/26 12:32:13;;;;;;;8.60;4.35;;;;;;;;;;5075893;28;20047;-50
2022/03/26 12:34:56;;;;;;;17.40;5.57;;;28.50;58.90;;;;;;5076201;28;20174;-49
2022/03/26 12:37:23;;;;;;;18.90;7.03;;;28.40;62.20;;;;;;5073950;28;20044;-49
2022/03/26 12:39:49;;;;;;;11.10;5.07;;;28.40;75.20;;;;;;5076240;28;20059;-49
2022/03/26 12:42:15;;;;;;;13.50;5.20;;;28.10;76.90;;;;;;5076371;28;20028;-48
2022/03/26 12:44:41;;;;;;;8.90;4.75;;;28.20;81.80;;;;;;5076111;28;20035;-49
2022/03/26 12:47:07;;;;;;;8.45;5.00;;;27.20;68.00;;;;;;5075929;28;20037;-49
2022/03/26 12:49:37;;;;;;;8.73;4.78;;;27.70;68.00;;;;;;5075673;28;20025;-48
2022/03/26 12:52:03;;;;;;;9.07;5.00;;;27.60;66.00;;;;;;5076305;28;20062;-48
2022/03/26 12:54:30;;;;;;;12.80;5.45;;;27.30;71.90;;;;;;5073983;28;20475;-49
2022/03/26 12:56:55;;;;;;;8.32;4.57;;;27.20;64.80;;;;;;5075596;28;20032;-49
2022/03/26 12:59:21;;;;;;;19.27;6.47;;;26.40;54.60;;;;;;5090379;28;20037;-48
2022/03/26 13:01:47;;;;;;;10.90;4.32;;;27.30;56.30;;;;;;5075975;28;20054;-49
2022/03/26 13:04:17;;;;;;;7.93;5.10;;;27.40;55.40;;;;;;5076081;28;20464;-49
2022/03/26 13:06:42;;;;;;;7.55;4.97;;;27.30;55.00;;;;;;5075951;28;20025;-49
2022/03/26 13:09:08;;;;;;;9.07;4.88;;;27.10;56.40;;;;;;5075710;28;20632;-48